sensor_id;sensor_type;location;lat;lon;timestamp;P1;durP1;ratioP1;P2;durP2;ratioP2
52354;SDS011;38286;51.156;17.038;2023-05-21T00:00:07;56.88;;;36.17;;
52354;SDS011;38286;51.156;17.038;2023-05-21T00:02:57;55.00;;;34.83;;
52354;SDS011;38286;51.156;17.038;2023-05-21T00:05:23;54.17;;;33.33;;
52354;SDS011;38286;51.156;17.038;2023-05-21T00:07:49;49.38;;;31.85;;
52354;SDS011;38286;51.156;17.038;2023-05-21T00:10:17;50.65;;;30.88;;
52354;SDS011;38286;51.156;17.038;2023-05-21T00:12:44;45.30;;;29.85;;
52354;SDS011;38286;51.156;17.038;2023-05-21T00:15:11;43.22;;;27.95;;
52354;SDS011;38286;51.156;17.038;2023-05-21T00:17:37;40.63;;;26.88;;
52354;SDS011;38286;51.156;17.038;2023-05-21T00:20:04;40.72;;;27.25;;
52354;SDS011;38286;51.156;17.038;2023-05-21T00:22:31;37.75;;;26.63;;
52354;SDS011;38286;51.156;17.038;2023-05-21T00:25:00;38.25;;;25.33;;
52354;SDS011;38286;51.156;17.038;2023-05-21T00:27:27;37.22;;;24.23;;
52354;SDS011;38286;51.156;17.038;2023-05-21T00:29:52;36.17;;;25.88;;
52354;SDS011;38286;51.156;17.038;2023-05-21T00:32:20;38.22;;;24.70;;
52354;SDS011;38286;51.156;17.038;2023-05-21T00:34:45;35.75;;;24.55;;
52354;SDS011;38286;51.156;17.038;2023-05-21T00:37:12;32.60;;;23.33;;
52354;SDS011;38286;51.156;17.038;2023-05-21T00:39:39;33.83;;;23.02;;
52354;SDS011;38286;51.156;17.038;2023-05-21T00:42:06;32.28;;;21.88;;
52354;SDS011;38286;51.156;17.038;2023-05-21T00:44:32;30.75;;;21.60;;
52354;SDS011;38286;51.156;17.038;2023-05-21T00:47:01;30.98;;;20.35;;
52354;SDS011;38286;51.156;17.038;2023-05-21T00:49:27;31.77;;;22.10;;
52354;SDS011;38286;51.156;17.038;2023-05-21T00:51:54;31.38;;;22.05;;
52354;SDS011;38286;51.156;17.038;2023-05-21T00:54:20;31.35;;;22.15;;
52354;SDS011;38286;51.156;17.038;2023-05-21T00:56:46;31.90;;;22.45;;
52354;SDS011;38286;51.156;17.038;2023-05-21T00:59:13;30.60;;;21.40;;
52354;SDS011;38286;51.156;17.038;2023-05-21T01:01:44;34.63;;;21.55;;
52354;SDS011;38286;51.156;17.038;2023-05-21T01:04:10;33.67;;;23.40;;
52354;SDS011;38286;51.156;17.038;2023-05-21T01:06:36;31.65;;;22.15;;
52354;SDS011;38286;51.156;17.038;2023-05-21T01:09:03;37.22;;;23.02;;
52354;SDS011;38286;51.156;17.038;2023-05-21T01:11:40;33.00;;;23.27;;
52354;SDS011;38286;51.156;17.038;2023-05-21T01:14:08;32.50;;;21.92;;
52354;SDS011;38286;51.156;17.038;2023-05-21T01:16:36;33.00;;;22.20;;
52354;SDS011;38286;51.156;17.038;2023-05-21T01:19:03;39.40;;;24.70;;
52354;SDS011;38286;51.156;17.038;2023-05-21T01:21:30;37.38;;;24.80;;
52354;SDS011;38286;51.156;17.038;2023-05-21T01:24:00;34.58;;;23.10;;
52354;SDS011;38286;51.156;17.038;2023-05-21T01:26:30;35.40;;;23.95;;
52354;SDS011;38286;51.156;17.038;2023-05-21T01:28:57;37.58;;;24.58;;
52354;SDS011;38286;51.156;17.038;2023-05-21T01:31:29;40.72;;;24.83;;
52354;SDS011;38286;51.156;17.038;2023-05-21T01:34:02;35.75;;;24.45;;
52354;SDS011;38286;51.156;17.038;2023-05-21T01:36:31;39.35;;;23.70;;
52354;SDS011;38286;51.156;17.038;2023-05-21T01:39:06;38.83;;;25.48;;
52354;SDS011;38286;51.156;17.038;2023-05-21T01:42:02;40.03;;;24.50;;
52354;SDS011;38286;51.156;17.038;2023-05-21T01:44:30;40.08;;;25.23;;
52354;SDS011;38286;51.156;17.038;2023-05-21T01:46:58;40.38;;;25.55;;
52354;SDS011;38286;51.156;17.038;2023-05-21T01:49:24;39.45;;;25.55;;
52354;SDS011;38286;51.156;17.038;2023-05-21T01:51:50;41.22;;;25.15;;
52354;SDS011;38286;51.156;17.038;2023-05-21T01:54:16;47.42;;;26.13;;
52354;SDS011;38286;51.156;17.038;2023-05-21T01:56:42;41.83;;;25.40;;
52354;SDS011;38286;51.156;17.038;2023-05-21T01:59:08;44.08;;;25.85;;
52354;SDS011;38286;51.156;17.038;2023-05-21T02:01:35;42.03;;;25.17;;
52354;SDS011;38286;51.156;17.038;2023-05-21T02:04:00;46.30;;;27.00;;
52354;SDS011;38286;51.156;17.038;2023-05-21T02:06:27;40.30;;;25.33;;
52354;SDS011;38286;51.156;17.038;2023-05-21T02:08:53;45.17;;;26.52;;
52354;SDS011;38286;51.156;17.038;2023-05-21T02:11:20;43.83;;;25.48;;
52354;SDS011;38286;51.156;17.038;2023-05-21T02:13:46;42.38;;;26.02;;
52354;SDS011;38286;51.156;17.038;2023-05-21T02:16:12;45.20;;;26.20;;
52354;SDS011;38286;51.156;17.038;2023-05-21T02:18:40;46.78;;;27.20;;
52354;SDS011;38286;51.156;17.038;2023-05-21T02:21:08;48.53;;;27.80;;
52354;SDS011;38286;51.156;17.038;2023-05-21T02:23:37;47.95;;;26.98;;
52354;SDS011;38286;51.156;17.038;2023-05-21T02:26:03;44.25;;;26.80;;
52354;SDS011;38286;51.156;17.038;2023-05-21T02:28:29;47.90;;;28.40;;
52354;SDS011;38286;51.156;17.038;2023-05-21T02:30:57;44.72;;;27.20;;
52354;SDS011;38286;51.156;17.038;2023-05-21T02:33:23;49.60;;;28.55;;
52354;SDS011;38286;51.156;17.038;2023-05-21T02:35:49;45.53;;;27.38;;
52354;SDS011;38286;51.156;17.038;2023-05-21T02:38:15;47.40;;;27.92;;
52354;SDS011;38286;51.156;17.038;2023-05-21T02:40:44;45.65;;;27.30;;
52354;SDS011;38286;51.156;17.038;2023-05-21T02:43:10;47.40;;;28.10;;
52354;SDS011;38286;51.156;17.038;2023-05-21T02:45:36;46.28;;;28.40;;
52354;SDS011;38286;51.156;17.038;2023-05-21T02:48:02;46.22;;;27.13;;
52354;SDS011;38286;51.156;17.038;2023-05-21T02:50:28;43.78;;;26.73;;
52354;SDS011;38286;51.156;17.038;2023-05-21T02:52:54;49.72;;;27.25;;
52354;SDS011;38286;51.156;17.038;2023-05-21T02:55:20;43.13;;;25.75;;
52354;SDS011;38286;51.156;17.038;2023-05-21T02:57:47;42.55;;;25.90;;
52354;SDS011;38286;51.156;17.038;2023-05-21T03:00:13;43.20;;;25.25;;
52354;SDS011;38286;51.156;17.038;2023-05-21T03:02:40;40.38;;;25.02;;
52354;SDS011;38286;51.156;17.038;2023-05-21T03:05:07;44.35;;;25.45;;
52354;SDS011;38286;51.156;17.038;2023-05-21T03:07:33;42.00;;;25.65;;
52354;SDS011;38286;51.156;17.038;2023-05-21T03:09:59;42.97;;;25.08;;
52354;SDS011;38286;51.156;17.038;2023-05-21T03:12:25;40.53;;;23.77;;
52354;SDS011;38286;51.156;17.038;2023-05-21T03:14:51;43.92;;;26.52;;
52354;SDS011;38286;51.156;17.038;2023-05-21T03:17:17;41.22;;;25.55;;
52354;SDS011;38286;51.156;17.038;2023-05-21T03:19:43;40.38;;;25.73;;
52354;SDS011;38286;51.156;17.038;2023-05-21T03:22:09;44.35;;;27.38;;
52354;SDS011;38286;51.156;17.038;2023-05-21T03:24:38;44.20;;;26.85;;
52354;SDS011;38286;51.156;17.038;2023-05-21T03:27:05;48.20;;;26.38;;
52354;SDS011;38286;51.156;17.038;2023-05-21T03:29:32;43.65;;;25.98;;
52354;SDS011;38286;51.156;17.038;2023-05-21T03:31:59;44.28;;;26.13;;
52354;SDS011;38286;51.156;17.038;2023-05-21T03:34:25;44.83;;;25.02;;
52354;SDS011;38286;51.156;17.038;2023-05-21T03:36:51;44.50;;;26.27;;
52354;SDS011;38286;51.156;17.038;2023-05-21T03:39:17;40.58;;;25.45;;
52354;SDS011;38286;51.156;17.038;2023-05-21T03:41:43;47.53;;;26.27;;
52354;SDS011;38286;51.156;17.038;2023-05-21T03:44:09;50.10;;;26.65;;
52354;SDS011;38286;51.156;17.038;2023-05-21T03:46:35;48.55;;;26.70;;
52354;SDS011;38286;51.156;17.038;2023-05-21T03:49:01;45.65;;;25.98;;
52354;SDS011;38286;51.156;17.038;2023-05-21T03:51:27;46.08;;;27.05;;
52354;SDS011;38286;51.156;17.038;2023-05-21T03:53:56;46.88;;;26.63;;
52354;SDS011;38286;51.156;17.038;2023-05-21T03:56:22;43.38;;;25.58;;
52354;SDS011;38286;51.156;17.038;2023-05-21T03:58:49;45.70;;;26.70;;
52354;SDS011;38286;51.156;17.038;2023-05-21T04:01:14;44.10;;;26.27;;
52354;SDS011;38286;51.156;17.038;2023-05-21T04:03:42;45.22;;;25.77;;
52354;SDS011;38286;51.156;17.038;2023-05-21T04:06:08;45.15;;;26.67;;
52354;SDS011;38286;51.156;17.038;2023-05-21T04:08:34;43.35;;;26.17;;
52354;SDS011;38286;51.156;17.038;2023-05-21T04:11:02;43.47;;;25.38;;
52354;SDS011;38286;51.156;17.038;2023-05-21T04:13:28;40.92;;;24.52;;
52354;SDS011;38286;51.156;17.038;2023-05-21T04:15:54;39.45;;;25.17;;
52354;SDS011;38286;51.156;17.038;2023-05-21T04:18:20;39.67;;;25.08;;
52354;SDS011;38286;51.156;17.038;2023-05-21T04:20:48;41.58;;;24.77;;
52354;SDS011;38286;51.156;17.038;2023-05-21T04:23:14;41.25;;;24.75;;
52354;SDS011;38286;51.156;17.038;2023-05-21T04:25:40;40.88;;;26.05;;
52354;SDS011;38286;51.156;17.038;2023-05-21T04:28:06;37.90;;;25.13;;
52354;SDS011;38286;51.156;17.038;2023-05-21T04:30:33;43.22;;;26.27;;
52354;SDS011;38286;51.156;17.038;2023-05-21T04:33:01;42.15;;;24.33;;
52354;SDS011;38286;51.156;17.038;2023-05-21T04:35:28;38.13;;;24.45;;
52354;SDS011;38286;51.156;17.038;2023-05-21T04:37:54;37.38;;;23.38;;
52354;SDS011;38286;51.156;17.038;2023-05-21T04:40:20;34.00;;;22.05;;
52354;SDS011;38286;51.156;17.038;2023-05-21T04:42:51;31.00;;;20.42;;
52354;SDS011;38286;51.156;17.038;2023-05-21T04:45:17;29.00;;;20.42;;
52354;SDS011;38286;51.156;17.038;2023-05-21T04:47:43;30.65;;;20.48;;
52354;SDS011;38286;51.156;17.038;2023-05-21T04:50:09;28.17;;;18.58;;
52354;SDS011;38286;51.156;17.038;2023-05-21T04:52:35;27.70;;;18.95;;
52354;SDS011;38286;51.156;17.038;2023-05-21T04:55:02;23.67;;;16.13;;
52354;SDS011;38286;51.156;17.038;2023-05-21T04:57:28;31.55;;;16.58;;
52354;SDS011;38286;51.156;17.038;2023-05-21T04:59:54;24.55;;;16.75;;
52354;SDS011;38286;51.156;17.038;2023-05-21T05:02:22;21.17;;;15.90;;
52354;SDS011;38286;51.156;17.038;2023-05-21T05:04:48;21.13;;;15.30;;
52354;SDS011;38286;51.156;17.038;2023-05-21T05:07:14;22.60;;;15.43;;
52354;SDS011;38286;51.156;17.038;2023-05-21T05:09:40;22.65;;;15.05;;
52354;SDS011;38286;51.156;17.038;2023-05-21T05:12:06;22.42;;;14.25;;
52354;SDS011;38286;51.156;17.038;2023-05-21T05:14:32;18.00;;;13.48;;
52354;SDS011;38286;51.156;17.038;2023-05-21T05:16:58;21.10;;;14.38;;
52354;SDS011;38286;51.156;17.038;2023-05-21T05:19:25;18.67;;;13.55;;
52354;SDS011;38286;51.156;17.038;2023-05-21T05:21:51;16.45;;;12.73;;
52354;SDS011;38286;51.156;17.038;2023-05-21T05:24:17;19.17;;;13.38;;
52354;SDS011;38286;51.156;17.038;2023-05-21T05:26:43;19.00;;;13.30;;
52354;SDS011;38286;51.156;17.038;2023-05-21T05:29:09;18.08;;;13.00;;
52354;SDS011;38286;51.156;17.038;2023-05-21T05:31:35;19.88;;;13.32;;
52354;SDS011;38286;51.156;17.038;2023-05-21T05:34:01;19.33;;;13.32;;
52354;SDS011;38286;51.156;17.038;2023-05-21T05:36:27;20.00;;;12.43;;
52354;SDS011;38286;51.156;17.038;2023-05-21T05:38:53;18.13;;;12.80;;
52354;SDS011;38286;51.156;17.038;2023-05-21T05:41:19;16.80;;;12.13;;
52354;SDS011;38286;51.156;17.038;2023-05-21T05:43:45;17.15;;;12.88;;
52354;SDS011;38286;51.156;17.038;2023-05-21T05:46:11;16.17;;;11.95;;
52354;SDS011;38286;51.156;17.038;2023-05-21T05:48:37;18.08;;;12.45;;
52354;SDS011;38286;51.156;17.038;2023-05-21T05:51:03;16.08;;;11.68;;
52354;SDS011;38286;51.156;17.038;2023-05-21T05:53:30;18.77;;;12.32;;
52354;SDS011;38286;51.156;17.038;2023-05-21T05:55:56;15.48;;;11.18;;
52354;SDS011;38286;51.156;17.038;2023-05-21T05:58:23;16.85;;;11.57;;
52354;SDS011;38286;51.156;17.038;2023-05-21T06:00:48;13.85;;;11.00;;
52354;SDS011;38286;51.156;17.038;2023-05-21T06:03:15;17.63;;;11.05;;
52354;SDS011;38286;51.156;17.038;2023-05-21T06:05:42;16.85;;;11.02;;
52354;SDS011;38286;51.156;17.038;2023-05-21T06:08:08;14.18;;;10.52;;
52354;SDS011;38286;51.156;17.038;2023-05-21T06:10:34;13.65;;;10.93;;
52354;SDS011;38286;51.156;17.038;2023-05-21T06:13:00;11.93;;;9.70;;
52354;SDS011;38286;51.156;17.038;2023-05-21T06:15:27;13.48;;;9.68;;
52354;SDS011;38286;51.156;17.038;2023-05-21T06:17:54;15.80;;;10.52;;
52354;SDS011;38286;51.156;17.038;2023-05-21T06:20:19;13.57;;;9.57;;
52354;SDS011;38286;51.156;17.038;2023-05-21T06:22:46;12.90;;;9.88;;
52354;SDS011;38286;51.156;17.038;2023-05-21T06:25:11;12.52;;;9.15;;
52354;SDS011;38286;51.156;17.038;2023-05-21T06:27:38;13.75;;;9.02;;
52354;SDS011;38286;51.156;17.038;2023-05-21T06:30:04;15.40;;;9.00;;
52354;SDS011;38286;51.156;17.038;2023-05-21T06:32:30;12.90;;;8.57;;
52354;SDS011;38286;51.156;17.038;2023-05-21T06:34:56;13.15;;;8.77;;
52354;SDS011;38286;51.156;17.038;2023-05-21T06:37:22;11.57;;;8.88;;
52354;SDS011;38286;51.156;17.038;2023-05-21T06:39:48;12.18;;;8.75;;
52354;SDS011;38286;51.156;17.038;2023-05-21T06:42:14;10.98;;;8.23;;
52354;SDS011;38286;51.156;17.038;2023-05-21T06:44:40;11.48;;;8.50;;
52354;SDS011;38286;51.156;17.038;2023-05-21T06:47:06;15.32;;;9.05;;
52354;SDS011;38286;51.156;17.038;2023-05-21T06:49:33;13.20;;;8.45;;
52354;SDS011;38286;51.156;17.038;2023-05-21T06:51:59;10.77;;;8.43;;
52354;SDS011;38286;51.156;17.038;2023-05-21T06:54:25;10.95;;;8.27;;
52354;SDS011;38286;51.156;17.038;2023-05-21T06:56:51;12.20;;;7.72;;
52354;SDS011;38286;51.156;17.038;2023-05-21T06:59:17;11.32;;;8.15;;
52354;SDS011;38286;51.156;17.038;2023-05-21T07:01:43;11.88;;;8.23;;
52354;SDS011;38286;51.156;17.038;2023-05-21T07:04:09;12.27;;;8.30;;
52354;SDS011;38286;51.156;17.038;2023-05-21T07:06:35;12.82;;;9.48;;
52354;SDS011;38286;51.156;17.038;2023-05-21T07:09:02;13.02;;;8.20;;
52354;SDS011;38286;51.156;17.038;2023-05-21T07:11:30;12.48;;;8.20;;
52354;SDS011;38286;51.156;17.038;2023-05-21T07:13:57;11.02;;;8.05;;
52354;SDS011;38286;51.156;17.038;2023-05-21T07:16:25;11.75;;;8.77;;
52354;SDS011;38286;51.156;17.038;2023-05-21T07:18:50;9.40;;;7.28;;
52354;SDS011;38286;51.156;17.038;2023-05-21T07:21:16;9.60;;;7.30;;
52354;SDS011;38286;51.156;17.038;2023-05-21T07:23:42;11.45;;;7.70;;
52354;SDS011;38286;51.156;17.038;2023-05-21T07:26:09;9.85;;;7.60;;
52354;SDS011;38286;51.156;17.038;2023-05-21T07:28:35;12.95;;;7.80;;
52354;SDS011;38286;51.156;17.038;2023-05-21T07:31:01;12.02;;;7.00;;
52354;SDS011;38286;51.156;17.038;2023-05-21T07:33:27;11.07;;;7.50;;
52354;SDS011;38286;51.156;17.038;2023-05-21T07:35:53;9.95;;;7.03;;
52354;SDS011;38286;51.156;17.038;2023-05-21T07:38:19;9.32;;;7.25;;
52354;SDS011;38286;51.156;17.038;2023-05-21T07:40:45;10.07;;;7.40;;
52354;SDS011;38286;51.156;17.038;2023-05-21T07:43:11;9.90;;;6.65;;
52354;SDS011;38286;51.156;17.038;2023-05-21T07:45:37;10.63;;;6.78;;
52354;SDS011;38286;51.156;17.038;2023-05-21T07:48:03;13.77;;;7.40;;
52354;SDS011;38286;51.156;17.038;2023-05-21T07:50:30;16.48;;;7.10;;
52354;SDS011;38286;51.156;17.038;2023-05-21T07:52:56;9.98;;;6.65;;
52354;SDS011;38286;51.156;17.038;2023-05-21T07:55:22;9.35;;;6.57;;
52354;SDS011;38286;51.156;17.038;2023-05-21T07:57:48;7.35;;;6.15;;
52354;SDS011;38286;51.156;17.038;2023-05-21T08:00:14;11.90;;;6.65;;
52354;SDS011;38286;51.156;17.038;2023-05-21T08:02:40;11.02;;;6.50;;
52354;SDS011;38286;51.156;17.038;2023-05-21T08:05:06;7.68;;;6.05;;
52354;SDS011;38286;51.156;17.038;2023-05-21T08:07:32;15.95;;;6.22;;
52354;SDS011;38286;51.156;17.038;2023-05-21T08:09:59;8.68;;;5.63;;
52354;SDS011;38286;51.156;17.038;2023-05-21T08:12:24;9.20;;;5.55;;
52354;SDS011;38286;51.156;17.038;2023-05-21T08:14:50;12.32;;;6.75;;
52354;SDS011;38286;51.156;17.038;2023-05-21T08:17:16;7.80;;;6.15;;
52354;SDS011;38286;51.156;17.038;2023-05-21T08:19:42;9.07;;;6.00;;
52354;SDS011;38286;51.156;17.038;2023-05-21T08:22:08;6.25;;;5.65;;
52354;SDS011;38286;51.156;17.038;2023-05-21T08:24:34;7.97;;;5.93;;
52354;SDS011;38286;51.156;17.038;2023-05-21T08:27:00;8.23;;;6.05;;
52354;SDS011;38286;51.156;17.038;2023-05-21T08:29:26;10.43;;;6.38;;
52354;SDS011;38286;51.156;17.038;2023-05-21T08:31:53;9.43;;;6.32;;
52354;SDS011;38286;51.156;17.038;2023-05-21T08:34:19;12.63;;;6.30;;
52354;SDS011;38286;51.156;17.038;2023-05-21T08:36:45;10.70;;;5.85;;
52354;SDS011;38286;51.156;17.038;2023-05-21T08:39:12;8.90;;;5.93;;
52354;SDS011;38286;51.156;17.038;2023-05-21T08:41:38;8.38;;;5.78;;
52354;SDS011;38286;51.156;17.038;2023-05-21T08:44:05;8.60;;;5.63;;
52354;SDS011;38286;51.156;17.038;2023-05-21T08:46:35;7.05;;;5.80;;
52354;SDS011;38286;51.156;17.038;2023-05-21T08:49:01;10.25;;;5.65;;
52354;SDS011;38286;51.156;17.038;2023-05-21T08:51:28;9.50;;;6.00;;
52354;SDS011;38286;51.156;17.038;2023-05-21T08:53:55;8.63;;;5.65;;
52354;SDS011;38286;51.156;17.038;2023-05-21T08:56:22;7.45;;;5.60;;
52354;SDS011;38286;51.156;17.038;2023-05-21T08:58:49;8.88;;;5.82;;
52354;SDS011;38286;51.156;17.038;2023-05-21T09:01:15;9.57;;;5.45;;
52354;SDS011;38286;51.156;17.038;2023-05-21T09:03:43;5.70;;;5.03;;
52354;SDS011;38286;51.156;17.038;2023-05-21T09:06:10;8.88;;;5.30;;
52354;SDS011;38286;51.156;17.038;2023-05-21T09:08:41;7.22;;;5.15;;
52354;SDS011;38286;51.156;17.038;2023-05-21T09:11:09;5.85;;;4.43;;
52354;SDS011;38286;51.156;17.038;2023-05-21T09:13:36;8.00;;;5.00;;
52354;SDS011;38286;51.156;17.038;2023-05-21T09:16:03;7.90;;;5.10;;
52354;SDS011;38286;51.156;17.038;2023-05-21T09:18:30;7.93;;;4.82;;
52354;SDS011;38286;51.156;17.038;2023-05-21T09:20:57;7.85;;;4.70;;
52354;SDS011;38286;51.156;17.038;2023-05-21T09:23:24;6.90;;;5.25;;
52354;SDS011;38286;51.156;17.038;2023-05-21T09:25:52;7.35;;;4.80;;
52354;SDS011;38286;51.156;17.038;2023-05-21T09:28:19;11.95;;;4.55;;
52354;SDS011;38286;51.156;17.038;2023-05-21T09:33:11;7.30;;;4.82;;
52354;SDS011;38286;51.156;17.038;2023-05-21T09:35:46;9.82;;;4.20;;
52354;SDS011;38286;51.156;17.038;2023-05-21T09:38:12;6.57;;;4.25;;
52354;SDS011;38286;51.156;17.038;2023-05-21T09:40:42;6.55;;;4.57;;
52354;SDS011;38286;51.156;17.038;2023-05-21T09:43:12;5.03;;;3.85;;
52354;SDS011;38286;51.156;17.038;2023-05-21T09:45:49;6.10;;;4.00;;
52354;SDS011;38286;51.156;17.038;2023-05-21T09:48:34;6.38;;;3.83;;
52354;SDS011;38286;51.156;17.038;2023-05-21T09:53:50;5.57;;;3.67;;
52354;SDS011;38286;51.156;17.038;2023-05-21T09:56:19;5.68;;;3.42;;
52354;SDS011;38286;51.156;17.038;2023-05-21T09:58:53;5.03;;;2.97;;
52354;SDS011;38286;51.156;17.038;2023-05-21T10:01:30;4.80;;;3.38;;
52354;SDS011;38286;51.156;17.038;2023-05-21T10:04:03;3.58;;;2.90;;
52354;SDS011;38286;51.156;17.038;2023-05-21T10:06:31;5.32;;;3.25;;
52354;SDS011;38286;51.156;17.038;2023-05-21T10:09:00;4.97;;;3.40;;
52354;SDS011;38286;51.156;17.038;2023-05-21T10:11:29;5.60;;;3.20;;
52354;SDS011;38286;51.156;17.038;2023-05-21T10:13:57;4.30;;;3.78;;
52354;SDS011;38286;51.156;17.038;2023-05-21T10:16:26;6.60;;;3.60;;
52354;SDS011;38286;51.156;17.038;2023-05-21T10:18:53;5.07;;;2.88;;
52354;SDS011;38286;51.156;17.038;2023-05-21T10:21:22;5.13;;;3.30;;
52354;SDS011;38286;51.156;17.038;2023-05-21T10:23:48;7.75;;;3.03;;
52354;SDS011;38286;51.156;17.038;2023-05-21T10:26:16;4.43;;;2.80;;
52354;SDS011;38286;51.156;17.038;2023-05-21T10:28:44;3.00;;;2.65;;
52354;SDS011;38286;51.156;17.038;2023-05-21T10:31:10;4.32;;;2.78;;
52354;SDS011;38286;51.156;17.038;2023-05-21T10:33:37;4.07;;;2.60;;
52354;SDS011;38286;51.156;17.038;2023-05-21T10:36:03;3.97;;;2.72;;
52354;SDS011;38286;51.156;17.038;2023-05-21T10:38:30;2.50;;;2.20;;
52354;SDS011;38286;51.156;17.038;2023-05-21T10:40:58;3.30;;;2.22;;
52354;SDS011;38286;51.156;17.038;2023-05-21T10:46:51;4.70;;;2.80;;
52354;SDS011;38286;51.156;17.038;2023-05-21T10:54:51;4.38;;;2.60;;
52354;SDS011;38286;51.156;17.038;2023-05-21T10:57:45;3.80;;;2.50;;
52354;SDS011;38286;51.156;17.038;2023-05-21T11:00:17;4.40;;;2.55;;
52354;SDS011;38286;51.156;17.038;2023-05-21T11:02:45;5.43;;;2.67;;
52354;SDS011;38286;51.156;17.038;2023-05-21T11:05:13;5.15;;;2.47;;
52354;SDS011;38286;51.156;17.038;2023-05-21T11:07:57;4.72;;;2.50;;
52354;SDS011;38286;51.156;17.038;2023-05-21T11:10:29;4.65;;;2.45;;
52354;SDS011;38286;51.156;17.038;2023-05-21T11:13:11;5.18;;;2.40;;
52354;SDS011;38286;51.156;17.038;2023-05-21T11:21:08;4.47;;;2.42;;
52354;SDS011;38286;51.156;17.038;2023-05-21T11:26:16;4.97;;;2.30;;
52354;SDS011;38286;51.156;17.038;2023-05-21T11:28:43;5.60;;;2.38;;
52354;SDS011;38286;51.156;17.038;2023-05-21T11:31:25;2.38;;;2.15;;
52354;SDS011;38286;51.156;17.038;2023-05-21T11:34:10;5.78;;;2.45;;
52354;SDS011;38286;51.156;17.038;2023-05-21T11:36:40;2.83;;;2.25;;
52354;SDS011;38286;51.156;17.038;2023-05-21T11:39:12;4.85;;;3.28;;
52354;SDS011;38286;51.156;17.038;2023-05-21T11:41:50;6.75;;;3.78;;
52354;SDS011;38286;51.156;17.038;2023-05-21T11:44:16;3.08;;;2.50;;
52354;SDS011;38286;51.156;17.038;2023-05-21T11:46:42;6.45;;;3.55;;
52354;SDS011;38286;51.156;17.038;2023-05-21T11:49:08;6.88;;;2.70;;
52354;SDS011;38286;51.156;17.038;2023-05-21T11:51:35;4.03;;;3.30;;
52354;SDS011;38286;51.156;17.038;2023-05-21T11:54:01;10.90;;;7.00;;
52354;SDS011;38286;51.156;17.038;2023-05-21T11:56:27;4.35;;;2.83;;
52354;SDS011;38286;51.156;17.038;2023-05-21T11:58:56;8.55;;;7.18;;
52354;SDS011;38286;51.156;17.038;2023-05-21T12:01:22;4.40;;;2.75;;
52354;SDS011;38286;51.156;17.038;2023-05-21T12:03:49;4.72;;;2.53;;
52354;SDS011;38286;51.156;17.038;2023-05-21T12:06:15;5.65;;;2.88;;
52354;SDS011;38286;51.156;17.038;2023-05-21T12:08:42;4.55;;;2.70;;
52354;SDS011;38286;51.156;17.038;2023-05-21T12:11:10;3.88;;;2.67;;
52354;SDS011;38286;51.156;17.038;2023-05-21T12:13:35;4.47;;;2.90;;
52354;SDS011;38286;51.156;17.038;2023-05-21T12:16:02;3.42;;;2.58;;
52354;SDS011;38286;51.156;17.038;2023-05-21T12:18:28;6.15;;;2.65;;
52354;SDS011;38286;51.156;17.038;2023-05-21T12:20:54;3.05;;;2.22;;
52354;SDS011;38286;51.156;17.038;2023-05-21T12:23:23;3.67;;;2.60;;
52354;SDS011;38286;51.156;17.038;2023-05-21T12:25:50;3.83;;;2.38;;
52354;SDS011;38286;51.156;17.038;2023-05-21T12:28:16;3.85;;;2.65;;
52354;SDS011;38286;51.156;17.038;2023-05-21T12:30:42;3.30;;;2.60;;
52354;SDS011;38286;51.156;17.038;2023-05-21T12:33:09;2.75;;;2.50;;
52354;SDS011;38286;51.156;17.038;2023-05-21T12:35:36;3.90;;;2.60;;
52354;SDS011;38286;51.156;17.038;2023-05-21T12:38:02;3.22;;;2.80;;
52354;SDS011;38286;51.156;17.038;2023-05-21T12:40:36;3.92;;;2.60;;
52354;SDS011;38286;51.156;17.038;2023-05-21T12:43:05;5.25;;;2.53;;
52354;SDS011;38286;51.156;17.038;2023-05-21T12:45:32;3.60;;;2.78;;
52354;SDS011;38286;51.156;17.038;2023-05-21T12:48:01;3.35;;;2.70;;
52354;SDS011;38286;51.156;17.038;2023-05-21T12:50:27;3.97;;;2.80;;
52354;SDS011;38286;51.156;17.038;2023-05-21T12:52:53;4.28;;;2.67;;
52354;SDS011;38286;51.156;17.038;2023-05-21T12:55:24;3.15;;;2.50;;
52354;SDS011;38286;51.156;17.038;2023-05-21T12:57:59;3.00;;;2.70;;
52354;SDS011;38286;51.156;17.038;2023-05-21T13:00:26;3.67;;;2.53;;
52354;SDS011;38286;51.156;17.038;2023-05-21T13:02:54;6.07;;;3.33;;
52354;SDS011;38286;51.156;17.038;2023-05-21T13:05:21;4.57;;;2.60;;
52354;SDS011;38286;51.156;17.038;2023-05-21T13:07:47;7.18;;;2.67;;
52354;SDS011;38286;51.156;17.038;2023-05-21T13:10:15;2.65;;;2.30;;
52354;SDS011;38286;51.156;17.038;2023-05-21T13:12:41;3.45;;;2.90;;
52354;SDS011;38286;51.156;17.038;2023-05-21T13:15:07;3.20;;;2.63;;
52354;SDS011;38286;51.156;17.038;2023-05-21T13:17:33;4.65;;;3.10;;
52354;SDS011;38286;51.156;17.038;2023-05-21T13:20:03;4.07;;;2.55;;
52354;SDS011;38286;51.156;17.038;2023-05-21T13:22:35;3.17;;;2.35;;
52354;SDS011;38286;51.156;17.038;2023-05-21T13:25:09;4.47;;;2.30;;
52354;SDS011;38286;51.156;17.038;2023-05-21T13:27:36;3.65;;;2.60;;
52354;SDS011;38286;51.156;17.038;2023-05-21T13:30:03;3.50;;;2.50;;
52354;SDS011;38286;51.156;17.038;2023-05-21T13:32:30;3.60;;;2.40;;
52354;SDS011;38286;51.156;17.038;2023-05-21T13:34:56;4.75;;;2.65;;
52354;SDS011;38286;51.156;17.038;2023-05-21T13:37:22;3.75;;;2.40;;
52354;SDS011;38286;51.156;17.038;2023-05-21T13:39:48;3.88;;;2.40;;
52354;SDS011;38286;51.156;17.038;2023-05-21T13:42:15;2.67;;;2.30;;
52354;SDS011;38286;51.156;17.038;2023-05-21T13:44:40;3.15;;;2.20;;
52354;SDS011;38286;51.156;17.038;2023-05-21T13:47:07;3.92;;;2.53;;
52354;SDS011;38286;51.156;17.038;2023-05-21T13:49:34;2.67;;;2.45;;
52354;SDS011;38286;51.156;17.038;2023-05-21T13:52:01;3.58;;;2.40;;
52354;SDS011;38286;51.156;17.038;2023-05-21T13:54:27;4.00;;;2.42;;
52354;SDS011;38286;51.156;17.038;2023-05-21T13:56:54;3.53;;;2.35;;
52354;SDS011;38286;51.156;17.038;2023-05-21T13:59:20;4.35;;;2.42;;
52354;SDS011;38286;51.156;17.038;2023-05-21T14:01:47;4.35;;;2.75;;
52354;SDS011;38286;51.156;17.038;2023-05-21T14:04:15;3.72;;;2.33;;
52354;SDS011;38286;51.156;17.038;2023-05-21T14:06:41;4.90;;;2.53;;
52354;SDS011;38286;51.156;17.038;2023-05-21T14:09:07;5.88;;;2.47;;
52354;SDS011;38286;51.156;17.038;2023-05-21T14:11:34;4.03;;;2.45;;
52354;SDS011;38286;51.156;17.038;2023-05-21T14:14:00;3.50;;;2.50;;
52354;SDS011;38286;51.156;17.038;2023-05-21T14:16:27;3.92;;;2.25;;
52354;SDS011;38286;51.156;17.038;2023-05-21T14:18:53;5.68;;;2.58;;
52354;SDS011;38286;51.156;17.038;2023-05-21T14:21:20;4.60;;;2.75;;
52354;SDS011;38286;51.156;17.038;2023-05-21T14:23:46;2.63;;;2.38;;
52354;SDS011;38286;51.156;17.038;2023-05-21T14:26:12;5.47;;;2.38;;
52354;SDS011;38286;51.156;17.038;2023-05-21T14:28:39;3.85;;;2.63;;
52354;SDS011;38286;51.156;17.038;2023-05-21T14:31:05;4.78;;;2.40;;
52354;SDS011;38286;51.156;17.038;2023-05-21T14:33:31;2.80;;;2.53;;
52354;SDS011;38286;51.156;17.038;2023-05-21T14:35:59;2.85;;;2.50;;
52354;SDS011;38286;51.156;17.038;2023-05-21T14:38:25;4.50;;;2.58;;
52354;SDS011;38286;51.156;17.038;2023-05-21T14:40:52;4.88;;;2.47;;
52354;SDS011;38286;51.156;17.038;2023-05-21T14:43:18;4.22;;;2.53;;